Aérodrome :
LOGIN :

S'inscrire | Disclaimer

   EN    FR    IT 

 










Légende :    VFR   VFR Marginal   IFR   IFR Intensif   IFR Très Intensif
Visi : 
Plafond : 
>= 8 km
>= 3000ft
5 à 8 km
1000 à 3000 ft
1500m à 5 km
500 à 1000 ft
800 à 1500m
200 à 500 ft
< 800m
< 200 ft
Symboles :   Orages  Brouillard  Fortes neiges  Fortes précipitations  Vent > 20 kt
SIGMETs :   Divers  Orages  Givrage  Turbulence  Onde Orograph.  Cendres Volcan.






- Altitude de l'aérodrome : 313 ft


LFQA - Reims-Prunay

DERNIER METAR :
  • 212000Z AUTO 21020G33KT 9999 BKN022/// BKN030/// BKN058/// ///TCU 10/07 Q0989

METARs EXPIRÉS :
  • 211930Z AUTO 21021G31KT 9000 -RA FEW018/// BKN026/// OVC033/// ///TCU 10/08 Q0989
  • 211900Z AUTO 20020G38KT 9000 RA BKN020/// OVC027/// ///TCU 10/08 Q0989
  • 211830Z AUTO 19021G32KT 9999 FEW016/// BKN023/// OVC029/// ///TCU 10/08 Q0990
  • 211800Z AUTO 19019KT 8000 -RA BKN014/// BKN022/// OVC036/// ///TCU 10/08 Q0990
  • 211730Z AUTO 19017G27KT 9999 -RA BKN014/// BKN021/// BKN027/// ///TCU 10/08 Q0990

TAF N/A



MET'MAP, la Météo Aéronautique d'un coup d'oeil ! - Copyright ORBIFLY Décembre 2007 - Disclaimer

ORBIFLY MET'MAP TEAM :

Programmation & Développement : Alexandra Zaïnal
Sur une idée originale de : Baudouin d'Aumeries
Assistance à la programmation : Marc-Olivier Méhu
Soutien technique & logistique : Manuel Goepfert

Contact : metmap@orbifly.com




SOURCES & CREDITS :

   NOAA